Time;durP1;ratioP1;P1;durP2;ratioP2;P2;SDS_P1;SDS_P2;PMS_P1;PMS_P2;Temp;Humidity;BMP_temperature;BMP_pressure;BME280_temperature;BME280_humidity;BME280_pressure;Samples;Min_cycle;Max_cycle;Signal;HPM_P1;HPM_P2
2023/01/16 00:04:56;;;;;;;9.48;2.50;;;;;;;10.72;79.47;101308.53;12738965;22;96914;-79
2023/01/16 00:09:59;;;;;;;8.13;2.73;;;;;;;10.80;79.93;101300.47;12738575;22;96645;-79
2023/01/16 00:15:02;;;;;;;10.25;2.33;;;;;;;10.82;80.36;101281.09;12737422;22;96753;-79
2023/01/16 00:20:08;;;;;;;11.60;2.72;;;;;;;10.89;79.58;101272.13;12738667;22;97087;-80
2023/01/16 00:25:11;;;;;;;7.35;2.15;;;;;;;10.85;81.03;101272.25;12738701;22;96547;-80
2023/01/16 00:30:15;;;;;;;13.40;2.22;;;;;;;10.92;81.24;101256.25;12738458;22;96576;-80
2023/01/16 00:35:20;;;;;;;10.82;2.28;;;;;;;10.91;82.05;101245.75;12737940;22;96749;-80
2023/01/16 00:40:24;;;;;;;9.25;2.72;;;;;;;10.97;81.54;101249.09;12738424;22;96820;-81
2023/01/16 00:45:27;;;;;;;11.55;2.20;;;;;;;11.02;81.71;101231.44;12738460;22;96622;-80
2023/01/16 00:50:31;;;;;;;11.23;2.90;;;;;;;11.10;81.00;101207.53;12739608;22;96631;-80
2023/01/16 00:55:36;;;;;;;15.45;2.33;;;;;;;11.13;80.79;101210.09;12738593;22;96549;-80
2023/01/16 01:00:39;;;;;;;15.57;2.85;;;;;;;11.12;82.24;101189.94;12737711;22;97357;-81
2023/01/16 01:05:44;;;;;;;12.90;3.20;;;;;;;11.17;81.94;101173.13;12736890;22;96696;-80
2023/01/16 01:10:47;;;;;;;14.35;2.92;;;;;;;11.17;82.22;101170.47;12737972;22;97554;-81
2023/01/16 01:15:50;;;;;;;11.43;2.60;;;;;;;11.19;83.22;101176.56;12738465;22;97199;-81
2023/01/16 01:20:55;;;;;;;14.70;2.67;;;;;;;11.15;83.78;101169.66;12738431;22;96780;-80
2023/01/16 01:25:59;;;;;;;14.30;2.95;;;;;;;11.22;84.26;101147.50;12738196;22;96637;-81
2023/01/16 01:31:04;;;;;;;11.18;2.53;;;;;;;11.28;83.86;101125.41;12737466;22;96593;-81
2023/01/16 01:36:09;;;;;;;12.38;2.55;;;;;;;11.33;84.33;101111.19;12738300;22;96597;-80
2023/01/16 01:41:14;;;;;;;13.15;2.45;;;;;;;11.39;83.89;101110.13;12738224;22;96537;-80
2023/01/16 01:46:23;;;;;;;11.93;2.13;;;;;;;11.45;83.68;101088.00;12737844;22;96579;-80
2023/01/16 01:51:31;;;;;;;19.92;2.83;;;;;;;11.50;83.15;101084.31;12737817;22;96502;-79
2023/01/16 01:56:38;;;;;;;16.85;2.47;;;;;;;11.54;83.27;101077.19;12736711;22;97008;-81
2023/01/16 02:01:41;;;;;;;15.57;2.63;;;;;;;11.56;84.16;101056.91;12737738;22;96633;-81
2023/01/16 02:06:49;;;;;;;18.33;3.05;;;;;;;11.57;84.39;101045.44;12737481;22;96604;-81
2023/01/16 02:11:55;;;;;;;12.73;2.83;;;;;;;11.55;84.69;101055.16;12737010;22;97283;-81
2023/01/16 02:23:02;;;;;;;10.25;2.20;;;;;;;11.66;85.61;101029.34;12737363;22;96548;-81
2023/01/16 02:28:19;;;;;;;;;;;;;;;11.68;86.11;101017.00;12688017;22;97111;-81
2023/01/16 02:33:30;;;;;;;12.80;2.00;;;;;;;11.74;85.07;101014.13;12738529;22;97070;-80
2023/01/16 02:38:43;;;;;;;11.82;2.47;;;;;;;11.87;84.42;100997.91;12736858;22;97057;-80
2023/01/16 02:43:54;;;;;;;14.52;2.35;;;;;;;11.87;85.78;100991.75;12737663;22;96620;-80
2023/01/16 02:49:07;;;;;;;9.20;1.73;;;;;;;11.90;85.66;100981.97;12735479;22;97210;-82
2023/01/16 02:54:17;;;;;;;10.38;2.33;;;;;;;11.87;85.93;100978.56;12736789;22;96679;-81
2023/01/16 02:59:22;;;;;;;10.77;1.95;;;;;;;11.84;86.64;100981.31;12736728;22;96917;-81
2023/01/16 03:04:48;;;;;;;14.85;2.05;;;;;;;11.80;86.91;100962.09;12736557;22;98194;-82
2023/01/16 03:10:05;;;;;;;6.13;1.50;;;;;;;11.88;87.08;100957.41;12735901;22;96626;-81
2023/01/16 03:15:12;;;;;;;9.57;1.50;;;;;;;11.80;87.47;100919.91;12736618;22;96626;-81
2023/01/16 03:20:30;;;;;;;7.22;1.73;;;;;;;11.78;87.91;100884.81;12736491;22;96569;-81
2023/01/16 03:25:40;;;;;;;7.30;1.60;;;;;;;11.76;87.98;100881.38;12678352;23;97396;-81
2023/01/16 03:30:51;;;;;;;8.95;1.30;;;;;;;11.77;88.64;100880.44;12676789;23;97617;-81
2023/01/16 03:36:00;;;;;;;4.18;0.95;;;;;;;11.80;88.35;100893.53;12677326;23;96539;-81
2023/01/16 03:41:09;;;;;;;4.75;1.33;;;;;;;11.95;88.25;100882.44;12675753;23;96846;-82
2023/01/16 03:46:16;;;;;;;8.75;1.48;;;;;;;12.00;87.14;100900.72;12677029;23;96547;-81
2023/01/16 03:51:24;;;;;;;7.18;1.67;;;;;;;12.02;87.96;100912.09;12677133;23;97005;-81
2023/01/16 03:56:35;;;;;;;10.57;2.00;;;;;;;12.01;88.37;100918.31;12676948;23;97337;-81
2023/01/16 04:01:45;;;;;;;9.65;1.65;;;;;;;11.99;88.83;100921.00;12676735;23;96686;-81
2023/01/16 04:06:54;;;;;;;9.68;1.50;;;;;;;12.00;88.19;100913.91;12676884;23;96634;-82
2023/01/16 04:11:59;;;;;;;12.82;2.53;;;;;;;12.03;88.09;100901.50;12676651;23;97231;-82
2023/01/16 04:17:03;;;;;;;;;;;;;;;12.02;88.46;100885.72;12678106;23;96650;-82
2023/01/16 04:22:08;;;;;;;7.65;1.70;;;;;;;12.10;87.88;100892.44;12676944;23;96716;-82
2023/01/16 04:27:12;;;;;;;6.35;1.52;;;;;;;12.12;87.40;100876.56;12676480;23;96713;-82
2023/01/16 04:32:15;;;;;;;12.77;2.38;;;;;;;12.09;87.91;100853.81;12675445;23;96934;-82
2023/01/16 04:37:19;;;;;;;5.53;1.35;;;;;;;12.05;87.93;100854.81;12676372;23;97120;-82
2023/01/16 04:42:23;;;;;;;10.35;1.88;;;;;;;12.08;87.88;100869.69;12676078;23;97062;-82
2023/01/16 04:47:26;;;;;;;8.10;1.73;;;;;;;12.10;87.82;100883.69;12676368;23;96535;-83
2023/01/16 04:52:30;;;;;;;8.35;2.13;;;;;;;12.06;88.23;100869.75;12676263;23;96906;-82
2023/01/16 04:57:34;;;;;;;9.20;1.77;;;;;;;12.09;88.69;100871.41;12677247;23;96828;-82
2023/01/16 05:02:37;;;;;;;7.95;1.20;;;;;;;12.12;88.28;100863.38;12675908;23;96610;-83
2023/01/16 05:07:42;;;;;;;5.30;1.60;;;;;;;12.19;87.80;100862.22;12677264;23;97469;-82
2023/01/16 05:12:45;;;;;;;9.20;1.77;;;;;;;12.25;87.20;100843.56;12675125;23;96838;-82
2023/01/16 05:17:48;;;;;;;13.85;2.50;;;;;;;12.16;87.73;100880.81;12676125;23;96673;-82
2023/01/16 05:22:53;;;;;;;14.50;2.40;;;;;;;12.17;87.32;100874.59;12674694;23;96661;-83
2023/01/16 05:27:56;;;;;;;5.38;1.55;;;;;;;12.14;87.63;100865.03;12675845;23;97283;-82
2023/01/16 05:32:59;;;;;;;13.80;2.30;;;;;;;12.12;86.51;100866.88;12675878;23;96593;-81
2023/01/16 05:38:04;;;;;;;9.13;1.63;;;;;;;12.17;86.46;100850.88;12676080;23;96635;-81
2023/01/16 05:43:07;;;;;;;9.45;2.00;;;;;;;12.14;86.58;100854.50;12675487;23;96790;-81
2023/01/16 05:48:10;;;;;;;8.98;2.70;;;;;;;12.05;87.02;100852.19;12675681;23;96980;-82
2023/01/16 05:53:15;;;;;;;7.50;1.70;;;;;;;12.05;86.94;100846.91;12676242;23;96783;-82
2023/01/16 05:58:18;;;;;;;9.15;1.58;;;;;;;12.09;86.99;100852.94;12676761;23;96605;-82
2023/01/16 06:03:21;;;;;;;12.13;2.28;;;;;;;12.16;86.99;100855.31;12675837;23;96576;-81
2023/01/16 06:08:26;;;;;;;15.80;2.50;;;;;;;12.16;86.55;100828.06;12675418;23;96702;-81
2023/01/16 06:13:29;;;;;;;12.82;2.25;;;;;;;12.18;87.07;100826.22;12674134;23;96747;-82
2023/01/16 06:18:32;;;;;;;14.82;2.88;;;;;;;12.22;86.52;100809.38;12675436;23;96615;-81
2023/01/16 06:23:37;;;;;;;19.10;3.58;;;;;;;12.27;86.15;100802.97;12675369;23;96573;-81
2023/01/16 06:28:41;;;;;;;25.20;4.15;;;;;;;12.30;85.31;100812.56;12675224;23;97055;-81
2023/01/16 06:33:44;;;;;;;29.38;4.47;;;;;;;12.35;86.04;100776.31;12674762;23;97085;-81
2023/01/16 06:38:49;;;;;;;14.75;3.45;;;;;;;12.42;85.45;100809.47;12674886;23;96619;-81
2023/01/16 06:43:52;;;;;;;18.60;4.20;;;;;;;12.45;85.65;100796.13;12674812;23;96589;-81
2023/01/16 06:48:55;;;;;;;17.67;3.95;;;;;;;12.52;84.73;100773.88;12676437;23;97614;-81
2023/01/16 06:54:02;;;;;;;27.55;4.85;;;;;;;12.52;84.28;100782.66;12674904;23;96532;-81
2023/01/16 06:59:05;;;;;;;26.33;4.85;;;;;;;12.58;84.44;100781.56;12677120;23;96645;-81
2023/01/16 07:04:09;;;;;;;23.95;5.07;;;;;;;12.61;83.52;100770.88;12676021;23;96637;-80
2023/01/16 07:09:14;;;;;;;22.50;4.75;;;;;;;12.63;83.81;100747.91;12676827;23;96623;-80
2023/01/16 07:25:00;;;;;;;33.35;5.20;;;;;;;12.58;83.95;100757.81;12676539;23;96672;-81
2023/01/16 07:30:04;;;;;;;21.48;4.68;;;;;;;12.60;83.57;100732.22;12676937;23;97099;-81
2023/01/16 07:35:08;;;;;;;21.55;5.05;;;;;;;12.61;82.97;100733.91;12677190;23;96532;-81
2023/01/16 07:40:14;;;;;;;22.75;4.43;;;;;;;12.64;82.61;100732.91;12677734;23;97006;-81
2023/01/16 07:45:17;;;;;;;27.63;4.15;;;;;;;12.70;82.46;100724.78;12677203;23;96634;-81
2023/01/16 07:50:20;;;;;;;19.55;3.92;;;;;;;12.65;83.27;100734.69;12676842;23;96597;-82
2023/01/16 07:55:28;;;;;;;18.38;4.90;;;;;;;12.59;83.36;100743.66;12675635;23;96620;-82
2023/01/16 08:00:31;;;;;;;20.77;3.95;;;;;;;12.63;83.63;100749.69;12676827;23;96619;-82
2023/01/16 08:05:34;;;;;;;14.70;3.38;;;;;;;12.67;83.09;100759.25;12676328;23;96624;-81
2023/01/16 08:10:39;;;;;;;18.67;3.53;;;;;;;12.69;82.98;100763.53;12676209;23;96573;-81
2023/01/16 08:15:42;;;;;;;21.45;3.53;;;;;;;12.70;83.27;100756.47;12676973;23;97239;-81
2023/01/16 08:20:46;;;;;;;17.80;3.80;;;;;;;12.77;82.49;100761.47;12676831;23;97307;-81
2023/01/16 08:25:52;;;;;;;18.45;3.90;;;;;;;12.82;82.04;100767.41;12676652;23;96526;-81
2023/01/16 08:30:55;;;;;;;23.92;4.38;;;;;;;12.82;82.21;100743.66;12677548;23;96614;-81
2023/01/16 08:35:59;;;;;;;24.05;4.28;;;;;;;12.82;82.39;100764.78;12676632;23;96754;-81
2023/01/16 08:41:04;;;;;;;27.77;4.80;;;;;;;12.65;83.70;100767.22;12676226;23;96853;-80
2023/01/16 08:51:39;;;;;;;19.13;4.07;;;;;;;12.56;84.51;100772.84;12676135;23;96939;-82
2023/01/16 08:56:44;;;;;;;21.43;3.93;;;;;;;12.50;84.94;100778.34;12676387;23;96644;-82
2023/01/16 09:01:47;;;;;;;25.10;4.95;;;;;;;12.54;84.90;100779.94;12675826;23;96644;-82
2023/01/16 09:06:50;;;;;;;21.00;4.80;;;;;;;12.50;85.45;100773.06;12676090;23;96549;-82
2023/01/16 09:17:18;;;;;;;20.77;4.60;;;;;;;12.57;84.95;100753.44;12676926;23;97126;-82
2023/01/16 09:22:21;;;;;;;26.05;4.60;;;;;;;12.49;86.01;100745.84;12676496;23;97049;-82
2023/01/16 09:27:26;;;;;;;21.83;4.53;;;;;;;12.58;85.50;100723.47;12675283;23;96606;-82
2023/01/16 09:32:29;;;;;;;18.88;4.05;;;;;;;12.65;85.71;100722.34;12675959;23;96808;-81
2023/01/16 09:37:32;;;;;;;21.48;4.07;;;;;;;12.77;85.36;100735.06;12674676;23;96682;-81
2023/01/16 09:48:17;;;;;;;16.15;3.70;;;;;;;12.87;84.26;100709.09;12675058;23;96742;-81
2023/01/16 09:59:03;;;;;;;14.27;3.85;;;;;;;12.98;83.63;100685.75;12675977;23;97499;-80
2023/01/16 10:04:19;;;;;;;20.05;5.03;;;;;;;12.99;83.93;100695.38;12676055;23;97120;-81
2023/01/16 10:09:31;;;;;;;16.77;3.90;;;;;;;13.06;83.92;100708.28;12675163;23;96835;-81
2023/01/16 10:14:53;;;;;;;19.80;3.42;;;;;;;12.96;84.43;100716.66;12676377;23;96603;-81
2023/01/16 10:20:26;;;;;;;16.33;3.08;;;;;;;12.91;85.21;100710.72;12675565;23;97103;-81
2023/01/16 10:25:37;;;;;;;15.98;2.97;;;;;;;13.07;83.67;100717.91;12675260;23;96569;-81
2023/01/16 10:30:49;;;;;;;17.77;3.50;;;;;;;13.04;84.14;100707.47;12673590;23;96771;-82
2023/01/16 10:35:54;;;;;;;14.43;3.30;;;;;;;12.98;85.33;100697.16;12675151;23;96688;-82
2023/01/16 10:49:25;;;;;;;10.80;3.22;;;;;;;12.99;85.76;100676.88;12674745;23;96662;-82
2023/01/16 10:51:56;;;;;;;11.13;3.08;;;;;;;12.97;86.40;100658.47;12674791;23;96587;-82
2023/01/16 10:57:03;;;;;;;7.97;2.03;;;;;;;12.94;87.27;100663.91;12674677;23;96641;-82
2023/01/16 11:02:20;;;;;;;15.13;2.88;;;;;;;13.07;86.59;100674.81;12674747;23;96695;-82
2023/01/16 11:07:28;;;;;;;15.23;3.65;;;;;;;13.11;86.21;100663.16;12675241;23;96711;-82
2023/01/16 11:23:19;;;;;;;16.75;3.55;;;;;;;13.25;86.11;100616.72;12673473;23;96664;-81
2023/01/16 11:28:26;;;;;;;16.00;2.42;;;;;;;13.46;86.39;100614.88;12672930;23;96663;-82
2023/01/16 11:33:39;;;;;;;9.48;2.40;;;;;;;13.53;84.97;100605.75;12674043;23;96612;-82
2023/01/16 11:38:46;;;;;;;9.57;2.40;;;;;;;13.57;84.78;100613.44;12673595;23;96728;-81
2023/01/16 11:49:35;;;;;;;12.07;2.20;;;;;;;13.62;84.15;100584.16;12677012;23;96597;-81
2023/01/16 11:54:38;;;;;;;10.48;2.42;;;;;;;13.61;84.72;100571.88;12677323;23;96935;-82
2023/01/16 12:00:13;;;;;;;12.85;2.58;;;;;;;13.43;86.27;100586.78;12677719;23;96627;-81
2023/01/16 12:10:59;;;;;;;9.55;2.13;;;;;;;13.28;87.44;100603.34;12676468;23;96596;-82
2023/01/16 12:16:21;;;;;;;9.00;1.63;;;;;;;13.36;87.47;100574.78;12675504;23;96657;-82
2023/01/16 12:21:33;;;;;;;7.57;2.03;;;;;;;13.38;86.99;100551.78;12676702;23;96614;-81
2023/01/16 12:26:46;;;;;;;11.30;2.20;;;;;;;13.35;87.02;100538.72;12676535;23;96739;-81
2023/01/16 12:32:03;;;;;;;8.13;1.63;;;;;;;13.30;87.67;100547.78;12676359;23;96585;-81
2023/01/16 12:37:22;;;;;;;8.07;1.80;;;;;;;13.22;88.92;100531.44;12676417;23;96629;-82
2023/01/16 12:48:18;;;;;;;8.57;1.80;;;;;;;13.28;87.28;100478.28;12675229;23;96638;-82
2023/01/16 12:53:40;;;;;;;10.80;2.08;;;;;;;13.29;87.29;100491.41;12677240;23;97080;-82
2023/01/16 12:58:48;;;;;;;10.13;1.90;;;;;;;13.37;86.44;100473.44;12676075;23;96638;-82
2023/01/16 13:03:55;;;;;;;9.88;2.00;;;;;;;13.46;86.07;100466.84;12676331;23;96652;-82
2023/01/16 13:09:08;;;;;;;10.98;2.42;;;;;;;13.27;87.64;100460.72;12674393;23;96690;-81
2023/01/16 13:14:13;;;;;;;9.32;2.22;;;;;;;13.29;87.46;100459.69;12676345;23;96600;-83
2023/01/16 13:19:18;;;;;;;;;;;;;;;13.23;87.94;100451.22;12676663;23;96626;-82
2023/01/16 13:24:28;;;;;;;7.53;1.80;;;;;;;13.26;88.02;100422.84;12675962;23;96752;-82
2023/01/16 13:29:37;;;;;;;7.07;1.60;;;;;;;13.19;89.02;100425.88;12675599;23;97343;-82
2023/01/16 13:34:45;;;;;;;8.88;2.22;;;;;;;13.18;89.15;100405.66;12675995;23;96573;-82
2023/01/16 13:40:25;;;;;;;7.07;1.80;;;;;;;13.25;88.30;100392.09;12675702;23;96585;-83
2023/01/16 13:45:49;;;;;;;7.43;1.75;;;;;;;13.27;88.66;100392.00;12677009;23;96596;-81
2023/01/16 13:50:59;;;;;;;9.25;1.63;;;;;;;13.24;88.86;100393.00;12675573;23;96651;-82
2023/01/16 13:56:09;;;;;;;11.55;2.38;;;;;;;13.27;88.42;100355.88;12674844;23;96751;-83
2023/01/16 14:01:44;;;;;;;8.13;1.70;;;;;;;13.19;88.81;100362.47;12674523;23;96621;-83
2023/01/16 14:06:49;;;;;;;11.65;1.95;;;;;;;13.14;89.34;100354.75;12673980;23;96810;-81
2023/01/16 14:12:01;;;;;;;8.13;2.15;;;;;;;13.11;90.01;100348.75;12675195;23;96602;-82
2023/01/16 14:17:04;;;;;;;11.07;1.98;;;;;;;13.18;89.54;100335.19;12675660;23;97050;-83
2023/01/16 14:27:43;;;;;;;11.20;2.85;;;;;;;13.25;88.81;100299.59;12675364;23;97247;-83
2023/01/16 14:32:49;;;;;;;12.55;3.00;;;;;;;13.18;89.16;100314.03;12675077;23;96668;-82
2023/01/16 14:38:00;;;;;;;11.10;2.17;;;;;;;13.17;88.98;100314.94;12676227;23;96705;-83
2023/01/16 14:59:26;;;;;;;13.23;2.60;;;;;;;13.08;89.25;100283.72;12674624;23;96933;-81
2023/01/16 15:04:46;;;;;;;8.20;2.25;;;;;;;13.11;88.83;100269.50;12674529;23;96627;-83
2023/01/16 15:09:51;;;;;;;10.57;2.38;;;;;;;13.12;88.61;100250.09;12674023;23;96616;-83
2023/01/16 15:14:58;;;;;;;13.63;2.75;;;;;;;13.12;88.36;100258.00;12674474;23;96590;-82
2023/01/16 15:25:50;;;;;;;11.73;2.63;;;;;;;13.09;89.09;100256.34;12677185;23;96653;-83
2023/01/16 15:30:59;;;;;;;13.57;2.40;;;;;;;13.06;89.36;100256.53;12677738;23;96562;-83
2023/01/16 15:36:05;;;;;;;9.02;2.30;;;;;;;13.09;88.22;100237.88;12677157;23;96581;-82
2023/01/16 15:41:08;;;;;;;12.05;2.22;;;;;;;13.09;88.40;100227.28;12676734;23;97095;-82
2023/01/16 15:46:36;;;;;;;12.38;2.28;;;;;;;13.11;88.03;100227.22;12675452;23;96650;-82
2023/01/16 15:51:39;;;;;;;12.15;2.58;;;;;;;13.08;88.12;100232.66;12676383;23;96696;-82
2023/01/16 15:56:44;;;;;;;10.68;2.67;;;;;;;13.03;88.62;100229.41;12676398;23;96585;-83
2023/01/16 16:02:18;;;;;;;11.93;2.25;;;;;;;13.00;88.24;100226.91;12676984;23;96621;-82
2023/01/16 16:07:23;;;;;;;10.15;1.85;;;;;;;13.07;87.32;100220.41;12676855;23;96674;-82
2023/01/16 16:12:27;;;;;;;10.23;1.87;;;;;;;13.05;87.46;100207.25;12676124;23;96830;-82
2023/01/16 16:22:57;;;;;;;10.38;2.38;;;;;;;12.95;88.78;100197.22;12677708;23;96555;-81
2023/01/16 16:28:01;;;;;;;13.35;2.53;;;;;;;12.93;89.11;100176.16;12676248;23;96864;-82
2023/01/16 16:33:05;;;;;;;13.50;2.47;;;;;;;12.92;89.43;100157.75;12675760;23;96761;-81
2023/01/16 16:38:22;;;;;;;17.15;2.85;;;;;;;12.94;89.64;100159.41;12675484;23;96961;-81
2023/01/16 16:43:46;;;;;;;7.68;1.95;;;;;;;12.88;90.04;100167.63;12675534;23;96750;-81
2023/01/16 16:48:51;;;;;;;12.82;2.30;;;;;;;12.89;90.57;100164.06;12676465;23;97269;-81
2023/01/16 16:53:57;;;;;;;11.10;2.50;;;;;;;12.85;89.84;100146.66;12676512;23;96835;-82
2023/01/16 16:59:00;;;;;;;11.32;2.05;;;;;;;12.90;89.54;100152.56;12676238;23;96733;-82
2023/01/16 17:04:17;;;;;;;14.65;2.80;;;;;;;12.86;89.68;100121.94;12675919;23;96631;-81
2023/01/16 17:09:22;;;;;;;9.50;2.42;;;;;;;12.85;89.83;100149.28;12676038;23;97016;-81
2023/01/16 17:14:25;;;;;;;10.43;2.00;;;;;;;12.85;89.87;100137.88;12677298;23;97352;-81
2023/01/16 17:19:31;;;;;;;5.95;1.75;;;;;;;12.84;89.85;100159.94;12676787;23;96996;-82
2023/01/16 17:24:34;;;;;;;10.32;1.83;;;;;;;12.82;90.14;100124.81;12676031;23;96682;-82
2023/01/16 17:29:42;;;;;;;12.63;2.08;;;;;;;12.83;90.29;100148.50;12674209;23;96777;-81
2023/01/16 17:34:47;;;;;;;4.78;1.73;;;;;;;12.81;91.05;100133.69;12676338;23;96570;-81
2023/01/16 17:39:50;;;;;;;7.35;2.20;;;;;;;12.85;90.66;100120.25;12675169;23;96804;-81
2023/01/16 17:50:22;;;;;;;9.77;2.05;;;;;;;12.86;90.44;100123.75;12675919;23;96460;-81
2023/01/16 18:00:45;;;;;;;8.23;1.85;;;;;;;12.92;89.68;100076.75;12660525;23;96852;-82
2023/01/16 18:05:50;;;;;;;7.97;1.60;;;;;;;12.93;89.74;100059.94;12676498;23;96685;-82
2023/01/16 18:10:53;;;;;;;10.48;2.35;;;;;;;12.89;90.20;100058.44;12674512;23;96712;-81
2023/01/16 18:26:39;;;;;;;4.13;1.60;;;;;;;12.90;90.53;100070.69;12676001;23;96710;-82
2023/01/16 18:32:19;;;;;;;6.55;2.03;;;;;;;12.87;90.44;100051.50;12674812;23;96659;-81
2023/01/16 18:37:07;;;;;;;9.35;1.80;;;;;;;12.90;90.83;100060.13;12675359;23;97026;-81
2023/01/16 19:03:43;;;;;;;10.75;2.50;;;;;;;12.96;89.78;100028.13;12677523;23;97143;-81
2023/01/16 19:08:50;;;;;;;8.70;2.05;;;;;;;13.00;89.53;100044.66;12676752;23;96883;-82
2023/01/16 19:13:53;;;;;;;10.07;2.50;;;;;;;12.99;89.14;100025.31;12676224;23;96629;-82
2023/01/16 19:18:58;;;;;;;14.30;2.40;;;;;;;12.96;89.60;100011.41;12677362;23;96761;-81
2023/01/16 19:24:11;;;;;;;12.80;2.95;;;;;;;12.95;89.63;100044.88;12677473;23;96917;-82
2023/01/16 19:29:16;;;;;;;11.63;2.97;;;;;;;12.99;88.99;100035.88;12677542;23;96858;-82
2023/01/16 19:34:20;;;;;;;19.02;3.55;;;;;;;13.06;88.53;100034.63;12677075;23;96732;-83
2023/01/16 19:39:24;;;;;;;14.20;3.65;;;;;;;13.03;88.18;100032.16;12676539;23;96868;-81
2023/01/16 19:49:48;;;;;;;15.93;3.45;;;;;;;13.05;88.12;100013.56;12677676;23;97208;-82
2023/01/16 19:54:52;;;;;;;19.20;3.88;;;;;;;13.05;87.54;100010.94;12676428;23;97080;-82
2023/01/16 19:59:55;;;;;;;15.27;3.55;;;;;;;13.05;87.55;99984.53;12676933;23;96589;-82
2023/01/16 20:04:59;;;;;;;17.45;3.65;;;;;;;13.02;87.26;99980.25;12675329;23;96655;-82
2023/01/16 20:10:03;;;;;;;16.52;3.30;;;;;;;12.86;88.18;99946.81;12676035;23;96659;-82
2023/01/16 20:15:08;;;;;;;12.15;2.83;;;;;;;12.84;89.09;99956.63;12676890;23;96883;-82
2023/01/16 20:20:13;;;;;;;13.07;2.83;;;;;;;12.83;88.89;99934.63;12676827;23;96631;-82
2023/01/16 20:25:18;;;;;;;8.82;2.67;;;;;;;12.80;88.63;99894.31;12676519;23;96625;-82
2023/01/16 20:35:38;;;;;;;12.52;2.88;;;;;;;12.77;89.06;99876.88;12675652;23;96782;-82
2023/01/16 20:40:42;;;;;;;9.00;2.65;;;;;;;12.83;87.76;99892.38;12677244;23;96960;-82
2023/01/16 20:45:54;;;;;;;15.07;3.17;;;;;;;12.84;87.96;99872.97;12676371;23;96516;-82
2023/01/16 20:50:57;;;;;;;20.20;4.10;;;;;;;12.88;87.90;99863.09;12676277;23;96801;-82
2023/01/16 20:56:04;;;;;;;11.93;3.30;;;;;;;12.87;87.77;99832.31;12675161;23;96675;-82
2023/01/16 21:01:08;;;;;;;14.90;3.33;;;;;;;12.83;88.18;99844.84;12676042;23;96640;-82
2023/01/16 21:06:11;;;;;;;19.70;3.72;;;;;;;12.92;87.34;99838.19;12676252;23;96605;-82
2023/01/16 21:21:56;;;;;;;12.13;2.50;;;;;;;12.82;87.84;99824.69;12676184;23;96613;-81
2023/01/16 21:27:01;;;;;;;11.68;2.63;;;;;;;12.75;87.94;99836.50;12676673;23;96691;-81
2023/01/16 21:32:06;;;;;;;12.70;2.55;;;;;;;12.75;88.40;99840.94;12676440;23;96508;-81
2023/01/16 21:37:09;;;;;;;11.90;2.45;;;;;;;12.70;89.16;99838.56;12675869;23;97005;-81
2023/01/16 21:47:35;;;;;;;8.60;2.10;;;;;;;12.67;90.22;99804.38;12674824;23;97026;-81
2023/01/16 21:52:38;;;;;;;6.88;1.90;;;;;;;12.75;90.21;99803.97;12675566;23;96596;-81
2023/01/16 21:57:42;;;;;;;7.25;2.33;;;;;;;12.78;90.03;99788.81;12674652;23;96802;-81
2023/01/16 22:02:46;;;;;;;9.82;2.55;;;;;;;12.77;90.66;99773.06;12675389;23;97352;-81
2023/01/16 22:07:49;;;;;;;6.68;1.38;;;;;;;12.79;90.40;99766.72;12674945;23;96728;-81
2023/01/16 22:18:16;;;;;;;5.43;1.40;;;;;;;12.81;90.97;99751.66;12675654;23;96552;-82
2023/01/16 22:23:21;;;;;;;6.95;1.38;;;;;;;12.87;90.80;99776.88;12676821;23;96578;-82
2023/01/16 22:28:26;;;;;;;4.05;0.95;;;;;;;12.86;90.86;99746.97;12675123;23;96876;-81
2023/01/16 22:33:29;;;;;;;6.15;1.45;;;;;;;12.85;90.95;99766.41;12674732;23;97309;-82
2023/01/16 22:38:36;;;;;;;4.45;1.20;;;;;;;12.85;90.76;99742.63;12673754;23;96902;-81
2023/01/16 22:49:04;;;;;;;5.22;1.25;;;;;;;12.87;90.81;99722.28;12674853;23;96559;-81
2023/01/16 22:54:09;;;;;;;6.65;1.65;;;;;;;12.90;90.65;99748.50;12675459;23;96930;-81
2023/01/16 22:59:14;;;;;;;7.03;1.65;;;;;;;12.90;91.23;99745.00;12674536;23;96715;-81
2023/01/16 23:04:17;;;;;;;5.07;1.33;;;;;;;12.89;91.46;99746.81;12674846;23;96533;-81
2023/01/16 23:09:20;;;;;;;5.55;0.95;;;;;;;12.96;91.45;99742.03;12674469;23;97000;-81
2023/01/16 23:14:27;;;;;;;4.88;1.15;;;;;;;12.94;91.61;99736.84;12675247;23;97411;-82
2023/01/16 23:19:32;;;;;;;2.13;0.70;;;;;;;13.04;91.52;99751.22;12674266;23;96594;-82
2023/01/16 23:24:36;;;;;;;1.83;0.50;;;;;;;13.05;91.29;99733.59;12674264;23;96591;-82
2023/01/16 23:29:40;;;;;;;2.50;0.43;;;;;;;13.14;90.75;99722.47;12672851;23;96812;-82
2023/01/16 23:34:43;;;;;;;2.92;0.50;;;;;;;13.07;91.22;99713.22;12673833;23;96929;-82
2023/01/16 23:39:47;;;;;;;1.83;0.52;;;;;;;13.08;91.34;99691.13;12674752;23;96772;-81
2023/01/16 23:44:51;;;;;;;2.67;0.70;;;;;;;13.10;91.06;99668.13;12676923;23;96965;-82
2023/01/16 23:49:55;;;;;;;1.98;0.68;;;;;;;13.10;91.13;99670.78;12676883;23;96526;-82
2023/01/16 23:54:58;;;;;;;2.07;0.57;;;;;;;13.17;91.14;99658.91;12676940;23;96505;-81
